Dubai, UAE

11:30 PM GST on October 25, 2014 (GMT +0400)
Abu Hail Metro Station | Change Station
CLOSE
Current Station
Personal Weather Station
Location: Dubai, DUBAI
Elevation: -7 ft
Nearby Weather Stations

Elev -7 ft 25.27 °N, 55.35 °E | Updated 11 minutes ago

Clear
Clear
84.9 °F
Feels Like 89 °F
N
1.0
Wind Variable Wind from ESE
Gusts 2.0 mph

Today
High -- | Low -- °F
--% Chance of Precip.
Yesterday
High -- | Low -- °F
Precip. -- in
6:22 AM 5:43 PM
Waxing Crescent, 4% visible
Pressure 29.86 in
Visibility -9999.0 miles
Clouds
Heat Index 89 °F
Dew Point 69 °F
Humidity 59%
Rainfall 0.00 in
Snow Depth Not available.
UV Not available.
Pollen Not available.
Air Quality Not available.
Flu Activity Not available.
METAR OMDB 251900Z 08004KT 050V110 CAVOK 30/22 Q1011 NOSIG

More Conditions Fewer Conditions

Pressure 29.86 in
Visibility -9999.0 miles
Clouds
Heat Index 89 °F
Dew Point 69 °F
Humidity 59%
Rainfall 0.00 in
Snow Depth Not available.
UV Not available.
Pollen Not available.
Air Quality Not available.
Flu Activity Not available.
METAR OMDB 251900Z 08004KT 050V110 CAVOK 30/22 Q1011 NOSIG

More Conditions Fewer Conditions

10-Day Weather Forecast

Almanac

Astronomy

Oct. 25, 2014 Rise Set
Actual Time 6:22 AM GST 5:43 PM GST
Civil Twilight 5:58 AM GST 6:06 PM GST
Nautical Twilight 5:31 AM GST 6:33 PM GST
Astronomical Twilight 5:05 AM GST 7:00 PM GST
Moon 7:31 AM GST 6:55 PM GST
Length of Visible Light 12h 07m
Length of Day
11h 21m
Tomorrow will be 1m 21s shorter.
Waxing Crescent, 4% of the Moon is Illuminated
Today
Waxing Crescent
Oct 30
First Quarter
Nov 6
Full
Nov 14
Last Quarter
Nov 22
New

Today's Extremes

Country Highs Country Lows

Community

WunderPhotos

Upload Photos

1,764,969 photos uploaded!

Nearby

Snow Depth

Not available.

Earthquake Activity

City Distance Mag. Time & Date
No recent earthquake activity has been reported nearby.
Minimum magnitude displayed is 2.5.

Coastal Water Temperatures

Place Temperature
No Stations Reporting

Nearby Weather Stations